Terminal Aerodrome Forecast
Issued by NWS Bismarck, ND

Home | Current Version | Previous Version | Graphics & Text | Print | Product List | Glossary On
Versions: 1 2 3 4 5 6 7 8 9 10 11 12 13 14
000
FTUS43 KBIS 201123
TAFBIS
TAF
KBIS 201123Z 2012/2112 33003KT P6SM FEW200
     FM210900 14006KT P6SM BKN200 WS020/17035KT=

USA.gov is the U.S. government's official web portal to all federal, state and local government web resources and services.